Time;durP1;ratioP1;P1;durP2;ratioP2;P2;SDS_P1;SDS_P2;PMS_P1;PMS_P2;Temp;Humidity;BMP_temperature;BMP_pressure;BME280_temperature;BME280_humidity;BME280_pressure;Samples;Min_cycle;Max_cycle;Signal;HPM_P1;HPM_P2
2021/06/18 00:00:57;;;;;;;;;;;13.70;99.90;;;;;;5094400;28;20315;-67
2021/06/18 00:03:24;;;;;;;;;;;13.70;99.90;;;;;;5093996;28;19917;-67
2021/06/18 00:05:50;;;;;;;;;;;13.80;99.90;;;;;;5094310;28;20362;-67
2021/06/18 00:08:17;;;;;;;;;;;13.90;99.90;;;;;;5094279;28;20017;-68
2021/06/18 00:10:44;;;;;;;;;;;14.00;99.90;;;;;;5092844;28;20381;-68
2021/06/18 00:13:11;;;;;;;;;;;14.00;99.90;;;;;;5093952;28;19920;-68
2021/06/18 00:15:37;;;;;;;;;;;14.00;99.90;;;;;;5093902;28;19912;-68
2021/06/18 00:18:04;;;;;;;;;;;14.10;99.90;;;;;;5093892;28;19908;-67
2021/06/18 00:20:31;;;;;;;;;;;14.10;99.90;;;;;;5094085;28;19956;-68
2021/06/18 00:22:57;;;;;;;;;;;14.20;99.90;;;;;;5094142;28;19908;-67
2021/06/18 00:25:24;;;;;;;;;;;14.20;99.90;;;;;;5094023;28;20259;-66
2021/06/18 00:27:52;;;;;;;;;;;14.30;99.90;;;;;;5093844;28;19916;-67
2021/06/18 00:30:19;;;;;;;;;;;14.30;99.90;;;;;;5093746;28;19923;-67
2021/06/18 00:32:46;;;;;;;;;;;14.30;99.80;;;;;;5093672;28;20412;-67
2021/06/18 00:35:12;;;;;;;;;;;14.30;99.90;;;;;;5093940;28;19915;-66
2021/06/18 00:37:39;;;;;;;;;;;14.40;99.80;;;;;;5093606;28;19915;-66
2021/06/18 00:40:06;;;;;;;;;;;14.50;99.40;;;;;;5093639;28;20327;-67
2021/06/18 00:42:33;;;;;;;;;;;14.50;99.30;;;;;;5093704;28;19961;-67
2021/06/18 00:45:00;;;;;;;;;;;14.50;99.20;;;;;;5093625;28;19907;-70
2021/06/18 00:47:28;;;;;;;;;;;14.50;99.60;;;;;;5093407;28;19951;-69
2021/06/18 00:49:55;;;;;;;;;;;14.50;99.50;;;;;;5091961;28;20433;-67
2021/06/18 00:52:22;;;;;;;;;;;14.60;99.30;;;;;;5093382;28;19923;-69
2021/06/18 00:54:49;;;;;;;;;;;14.70;99.00;;;;;;5093505;28;20002;-68
2021/06/18 00:57:17;;;;;;;;;;;14.70;99.30;;;;;;5093314;28;19912;-68
2021/06/18 00:59:43;;;;;;;;;;;14.80;98.60;;;;;;5093237;28;20270;-68
2021/06/18 01:02:10;;;;;;;;;;;14.90;98.40;;;;;;5093444;28;19927;-67
2021/06/18 01:04:38;;;;;;;;;;;15.10;98.50;;;;;;5093288;28;19914;-68
2021/06/18 01:07:10;;;;;;;;;;;15.30;98.10;;;;;;5093129;28;20388;-68
2021/06/18 01:09:59;;;;;;;;;;;15.70;97.20;;;;;;5092965;28;19951;-68
2021/06/18 01:12:27;;;;;;;;;;;16.30;96.40;;;;;;5082584;28;19920;-67
2021/06/18 01:14:59;;;;;;;;;;;16.30;96.30;;;;;;5091939;28;19908;-67
2021/06/18 01:17:35;;;;;;;;;;;16.60;95.90;;;;;;5093009;28;19929;-68
2021/06/18 01:20:16;;;;;;;;;;;16.50;95.30;;;;;;5093215;28;20395;-69
2021/06/18 01:22:46;;;;;;;;;;;16.60;95.00;;;;;;5093087;28;20341;-67
2021/06/18 01:25:15;;;;;;;;;;;16.50;95.70;;;;;;5093085;28;19908;-69
2021/06/18 01:28:03;;;;;;;;;;;16.30;95.20;;;;;;5091860;28;19912;-67
2021/06/18 01:30:30;;;;;;;;;;;16.10;95.50;;;;;;5093105;28;19923;-69
2021/06/18 01:32:57;;;;;;;;;;;16.00;95.90;;;;;;5092824;28;19961;-72
2021/06/18 01:35:27;;;;;;;;;;;15.90;96.20;;;;;;5092997;28;20346;-69
2021/06/18 01:37:57;;;;;;;;;;;15.80;96.40;;;;;;5092858;28;20366;-69
2021/06/18 01:40:24;;;;;;;;;;;15.80;96.20;;;;;;5093130;28;19908;-67
2021/06/18 01:42:51;;;;;;;;;;;15.70;96.10;;;;;;5092963;28;19908;-68
2021/06/18 01:45:19;;;;;;;;;;;15.70;97.00;;;;;;5092842;28;19915;-68
2021/06/18 01:47:46;;;;;;;;;;;15.60;96.80;;;;;;5092651;28;20354;-69
2021/06/18 01:50:15;;;;;;;;;;;15.60;97.00;;;;;;5092768;28;20046;-68
2021/06/18 01:52:44;;;;;;;;;;;15.60;96.90;;;;;;5091541;28;20306;-67
2021/06/18 01:55:11;;;;;;;;;;;15.60;97.10;;;;;;5092652;28;20320;-68
2021/06/18 01:57:39;;;;;;;;;;;15.60;96.80;;;;;;5092618;28;20337;-67
2021/06/18 02:00:07;;;;;;;;;;;15.60;97.20;;;;;;5092789;28;19943;-67
2021/06/18 02:02:34;;;;;;;;;;;15.60;97.30;;;;;;5094841;28;20350;-67
2021/06/18 02:05:03;;;;;;;;;;;15.70;97.40;;;;;;5096777;28;19908;-68
2021/06/18 02:07:30;;;;;;;;;;;15.80;97.50;;;;;;5096562;28;19912;-67
2021/06/18 02:09:58;;;;;;;;;;;15.70;97.10;;;;;;5096205;28;19970;-67
2021/06/18 02:12:25;;;;;;;;;;;15.80;97.10;;;;;;5096595;28;19924;-67
2021/06/18 02:14:52;;;;;;;;;;;15.80;97.00;;;;;;5096289;28;19916;-69
2021/06/18 02:17:19;;;;;;;;;;;15.80;96.90;;;;;;5096196;28;19916;-68
2021/06/18 02:19:48;;;;;;;;;;;15.80;97.10;;;;;;5095339;28;20382;-68
2021/06/18 02:22:15;;;;;;;;;;;15.80;97.20;;;;;;5096380;28;20251;-69
2021/06/18 02:24:42;;;;;;;;;;;15.80;96.80;;;;;;5096129;28;19912;-67
2021/06/18 02:27:12;;;;;;;;;;;15.80;96.90;;;;;;5096219;28;20002;-69
2021/06/18 02:29:40;;;;;;;;;;;15.80;96.80;;;;;;5095900;28;20340;-69
2021/06/18 02:32:07;;;;;;;;;;;15.90;97.00;;;;;;5095915;28;19944;-67
2021/06/18 02:34:35;;;;;;;;;;;16.00;97.50;;;;;;5095815;28;19909;-67
2021/06/18 02:37:02;;;;;;;;;;;16.00;97.50;;;;;;5096121;28;19927;-67
2021/06/18 02:39:29;;;;;;;;;;;16.10;96.70;;;;;;5095660;28;20437;-66
2021/06/18 02:41:56;;;;;;;;;;;16.20;97.30;;;;;;5095922;28;19908;-67
2021/06/18 02:44:23;;;;;;;;;;;16.20;96.80;;;;;;5095708;28;19908;-67
2021/06/18 02:46:50;;;;;;;;;;;16.30;96.50;;;;;;5095850;28;19908;-66
2021/06/18 02:49:21;;;;;;;;;;;16.20;96.70;;;;;;5095800;28;19908;-67
2021/06/18 02:51:47;;;;;;;;;;;16.20;96.70;;;;;;5095323;28;20380;-66
2021/06/18 02:54:26;;;;;;;;;;;16.30;96.70;;;;;;5095931;28;19908;-66
2021/06/18 02:56:57;;;;;;;;;;;16.30;96.40;;;;;;5095818;28;19915;-67
2021/06/18 02:59:24;;;;;;;;;;;16.40;96.30;;;;;;5095786;28;19931;-66
2021/06/18 03:01:52;;;;;;;;;;;16.40;96.70;;;;;;5094943;28;19958;-67
2021/06/18 03:04:23;;;;;;;;;;;16.50;96.10;;;;;;5095369;28;19998;-68
2021/06/18 03:06:51;;;;;;;;;;;16.40;94.60;;;;;;5095506;28;19940;-67
2021/06/18 03:09:21;;;;;;;;;;;16.40;94.70;;;;;;5095367;28;19960;-69
2021/06/18 03:11:47;;;;;;;;;;;16.30;95.00;;;;;;5095007;28;20290;-69
2021/06/18 03:14:16;;;;;;;;;;;16.20;95.20;;;;;;5094150;28;19920;-67
2021/06/18 03:16:46;;;;;;;;;;;16.20;95.30;;;;;;5094982;28;19909;-69
2021/06/18 03:19:14;;;;;;;;;;;16.20;95.30;;;;;;5093750;28;20358;-69
2021/06/18 03:21:41;;;;;;;;;;;16.20;95.10;;;;;;5094931;28;20320;-69
2021/06/18 03:24:08;;;;;;;;;;;16.10;94.90;;;;;;5095140;28;20376;-69
2021/06/18 03:26:35;;;;;;;;;;;16.10;95.10;;;;;;5095210;28;19909;-69
2021/06/18 03:29:03;;;;;;;;;;;16.10;94.40;;;;;;5094996;28;19912;-69
2021/06/18 03:31:31;;;;;;;;;;;16.10;94.30;;;;;;5094555;28;19959;-68
2021/06/18 03:33:59;;;;;;;;;;;16.20;94.00;;;;;;5094910;28;19961;-68
2021/06/18 03:36:26;;;;;;;;;;;16.20;94.10;;;;;;5094838;28;19914;-68
2021/06/18 03:38:53;;;;;;;;;;;16.20;94.10;;;;;;5094850;28;19961;-68
2021/06/18 03:41:21;;;;;;;;;;;16.20;94.70;;;;;;5093354;28;19908;-69
2021/06/18 03:43:48;;;;;;;;;;;16.30;94.40;;;;;;5094388;28;19959;-69
2021/06/18 03:46:18;;;;;;;;;;;16.30;94.10;;;;;;5094725;28;19908;-69
2021/06/18 03:48:45;;;;;;;;;;;16.30;94.20;;;;;;5094364;28;19915;-68
2021/06/18 03:51:12;;;;;;;;;;;16.40;93.80;;;;;;5091734;28;20341;-68
2021/06/18 03:53:39;;;;;;;;;;;16.30;93.60;;;;;;5082951;28;19946;-66
2021/06/18 03:56:06;;;;;;;;;;;16.30;93.70;;;;;;5073575;28;20355;-67
2021/06/18 03:58:33;;;;;;;;;;;16.30;93.70;;;;;;5073540;28;19915;-67
2021/06/18 04:01:04;;;;;;;;;;;16.40;92.90;;;;;;5073657;28;20045;-67
2021/06/18 04:03:32;;;;;;;;;;;16.40;93.20;;;;;;5073101;28;19908;-67
2021/06/18 04:06:03;;;;;;;;;;;16.50;92.80;;;;;;5073210;28;19916;-66
2021/06/18 04:08:30;;;;;;;;;;;16.40;93.10;;;;;;5073278;28;20255;-67
2021/06/18 04:10:57;;;;;;;;;;;16.50;92.70;;;;;;5077919;28;19916;-66
2021/06/18 04:13:24;;;;;;;;;;;16.40;93.00;;;;;;5094099;28;19919;-68
2021/06/18 04:15:51;;;;;;;;;;;16.40;92.60;;;;;;5093947;28;20023;-67
2021/06/18 04:18:21;;;;;;;;;;;16.40;93.00;;;;;;5093993;28;19908;-66
2021/06/18 04:20:49;;;;;;;;;;;16.40;93.00;;;;;;5094109;28;19988;-68
2021/06/18 04:23:16;;;;;;;;;;;16.30;93.40;;;;;;5094062;28;20343;-68
2021/06/18 04:25:43;;;;;;;;;;;16.30;93.40;;;;;;5093402;28;19912;-67
2021/06/18 04:28:09;;;;;;;;;;;16.30;93.30;;;;;;5093856;28;19928;-68
2021/06/18 04:30:36;;;;;;;;;;;16.30;93.80;;;;;;5093671;28;19959;-68
2021/06/18 04:33:03;;;;;;;;;;;16.30;93.60;;;;;;5093651;28;20425;-66
2021/06/18 04:35:30;;;;;;;;;;;16.40;93.10;;;;;;5093569;28;19909;-67
2021/06/18 04:37:59;;;;;;;;;;;16.40;92.20;;;;;;5093594;28;19908;-68
2021/06/18 04:40:25;;;;;;;;;;;16.50;91.90;;;;;;5093808;28;20320;-68
2021/06/18 04:42:52;;;;;;;;;;;16.50;91.90;;;;;;5093699;28;20286;-68
2021/06/18 04:45:19;;;;;;;;;;;16.40;91.10;;;;;;5093685;28;19908;-68
2021/06/18 04:47:45;;;;;;;;;;;16.40;91.20;;;;;;5093221;28;19908;-68
2021/06/18 04:50:12;;;;;;;;;;;16.40;91.00;;;;;;5093390;28;20483;-68
2021/06/18 04:52:41;;;;;;;;;;;16.40;91.70;;;;;;5092741;28;19957;-66
2021/06/18 04:55:11;;;;;;;;;;;16.40;91.80;;;;;;5093375;28;20259;-69
2021/06/18 04:57:38;;;;;;;;;;;16.30;92.50;;;;;;5093103;28;20006;-68
2021/06/18 05:00:05;;;;;;;;;;;16.40;92.50;;;;;;5093504;28;20384;-67
2021/06/18 05:02:31;;;;;;;;;;;16.40;92.60;;;;;;5092993;28;20374;-70
2021/06/18 05:04:58;;;;;;;;;;;16.40;92.00;;;;;;5093153;28;20251;-67
2021/06/18 05:07:25;;;;;;;;;;;16.50;92.10;;;;;;5093263;28;20305;-67
2021/06/18 05:09:52;;;;;;;;;;;16.50;92.20;;;;;;5092963;28;19912;-66
2021/06/18 05:12:19;;;;;;;;;;;16.50;91.70;;;;;;5093090;28;20294;-68
2021/06/18 05:14:45;;;;;;;;;;;16.40;91.80;;;;;;5093278;28;19912;-69
2021/06/18 05:17:12;;;;;;;;;;;16.50;92.20;;;;;;5092605;28;19912;-68
2021/06/18 05:19:39;;;;;;;;;;;16.40;92.20;;;;;;5092926;28;19915;-68
2021/06/18 05:22:05;;;;;;;;;;;16.40;92.40;;;;;;5093085;28;19961;-68
2021/06/18 05:24:32;;;;;;;;;;;16.30;92.50;;;;;;5093027;28;19958;-68
2021/06/18 05:26:59;;;;;;;;;;;16.30;92.50;;;;;;5093150;28;19908;-68
2021/06/18 05:29:26;;;;;;;;;;;16.20;92.70;;;;;;5092820;28;19909;-68
2021/06/18 05:31:52;;;;;;;;;;;16.20;93.00;;;;;;5092082;28;20003;-68
2021/06/18 05:34:19;;;;;;;;;;;16.20;93.60;;;;;;5092957;28;19954;-67
2021/06/18 05:36:46;;;;;;;;;;;16.20;93.00;;;;;;5094293;28;19968;-68
2021/06/18 05:39:16;;;;;;;;;;;16.20;93.10;;;;;;5097082;28;19915;-70
2021/06/18 05:41:43;;;;;;;;;;;16.10;93.70;;;;;;5096890;28;19915;-69
2021/06/18 05:44:10;;;;;;;;;;;16.00;93.50;;;;;;5097174;28;20377;-68
2021/06/18 05:46:36;;;;;;;;;;;16.10;93.60;;;;;;5096954;28;20370;-69
2021/06/18 05:49:03;;;;;;;;;;;16.10;93.80;;;;;;5096787;28;19987;-68
2021/06/18 05:51:30;;;;;;;;;;;16.00;93.60;;;;;;5096635;28;19916;-69
2021/06/18 05:53:57;;;;;;;;;;;16.00;93.40;;;;;;5096992;28;20255;-69
2021/06/18 05:56:24;;;;;;;;;;;16.00;93.70;;;;;;5096733;28;19908;-69
2021/06/18 05:58:50;;;;;;;;;;;16.00;93.80;;;;;;5096751;28;19908;-69
2021/06/18 06:01:17;;;;;;;;;;;15.90;93.80;;;;;;5096473;28;19916;-68
2021/06/18 06:03:43;;;;;;;;;;;15.90;94.20;;;;;;5096276;28;19919;-69
2021/06/18 06:06:10;;;;;;;;;;;15.90;94.20;;;;;;5096637;28;19961;-68
2021/06/18 06:08:37;;;;;;;;;;;15.80;94.60;;;;;;5096589;28;20366;-67
2021/06/18 06:11:05;;;;;;;;;;;15.80;94.50;;;;;;5096522;28;19978;-69
2021/06/18 06:13:31;;;;;;;;;;;15.80;94.60;;;;;;5096116;28;20363;-67
2021/06/18 06:15:58;;;;;;;;;;;15.80;94.00;;;;;;5096125;28;19908;-67
2021/06/18 06:18:25;;;;;;;;;;;15.80;94.00;;;;;;5096530;28;20006;-68
2021/06/18 06:20:51;;;;;;;;;;;15.80;94.10;;;;;;5096275;28;19908;-67
2021/06/18 06:23:18;;;;;;;;;;;15.80;93.90;;;;;;5096113;28;19963;-68
2021/06/18 06:25:45;;;;;;;;;;;15.70;94.00;;;;;;5096080;28;19908;-67
2021/06/18 06:28:11;;;;;;;;;;;15.70;93.50;;;;;;5095834;28;19908;-67
2021/06/18 06:30:38;;;;;;;;;;;15.70;93.40;;;;;;5095874;28;19916;-66
2021/06/18 06:33:05;;;;;;;;;;;15.70;94.00;;;;;;5096081;28;19916;-67
2021/06/18 06:35:32;;;;;;;;;;;15.60;93.70;;;;;;5095762;28;19960;-67
2021/06/18 06:37:59;;;;;;;;;;;15.60;93.50;;;;;;5095848;28;19908;-68
2021/06/18 06:40:25;;;;;;;;;;;15.60;93.30;;;;;;5095907;28;19908;-68
2021/06/18 06:42:52;;;;;;;;;;;15.60;93.50;;;;;;5095680;28;19946;-68
2021/06/18 06:45:19;;;;;;;;;;;15.60;93.50;;;;;;5095565;28;19912;-69
2021/06/18 06:47:46;;;;;;;;;;;15.50;93.60;;;;;;5095510;28;20328;-68
2021/06/18 06:50:13;;;;;;;;;;;15.50;94.10;;;;;;5095571;28;19916;-68
2021/06/18 06:52:40;;;;;;;;;;;15.50;93.90;;;;;;5095785;28;20022;-67
2021/06/18 06:55:06;;;;;;;;;;;15.50;93.70;;;;;;5095605;28;19908;-66
2021/06/18 06:57:33;;;;;;;;;;;15.50;93.50;;;;;;5095484;28;19915;-68
2021/06/18 07:00:00;;;;;;;;;;;15.50;94.00;;;;;;5095623;28;19961;-68
2021/06/18 07:02:27;;;;;;;;;;;15.50;94.00;;;;;;5095319;28;19976;-67
2021/06/18 07:04:53;;;;;;;;;;;15.50;93.90;;;;;;5095454;28;19931;-68
2021/06/18 07:07:20;;;;;;;;;;;15.50;94.20;;;;;;5095395;28;19913;-69
2021/06/18 07:09:47;;;;;;;;;;;15.50;94.00;;;;;;5095114;28;20380;-67
2021/06/18 07:12:13;;;;;;;;;;;15.40;94.50;;;;;;5095037;28;19973;-68
2021/06/18 07:14:40;;;;;;;;;;;15.40;94.10;;;;;;5095367;28;20416;-68
2021/06/18 07:17:08;;;;;;;;;;;15.40;94.20;;;;;;5095133;28;19917;-68
2021/06/18 07:19:35;;;;;;;;;;;15.40;94.40;;;;;;5095155;28;19908;-68
2021/06/18 07:22:02;;;;;;;;;;;15.40;94.10;;;;;;5095300;28;19908;-68
2021/06/18 07:24:30;;;;;;;;;;;15.40;94.40;;;;;;5095088;28;20349;-67
2021/06/18 07:26:56;;;;;;;;;;;15.40;94.50;;;;;;5095100;28;20319;-66
2021/06/18 07:29:25;;;;;;;;;;;15.30;94.30;;;;;;5094942;28;19963;-67
2021/06/18 07:31:53;;;;;;;;;;;15.30;94.40;;;;;;5094495;28;20019;-68
2021/06/18 07:34:20;;;;;;;;;;;15.30;95.20;;;;;;5093611;28;20053;-68
2021/06/18 07:36:47;;;;;;;;;;;15.20;95.30;;;;;;5094954;28;19908;-68
2021/06/18 07:39:15;;;;;;;;;;;15.20;95.50;;;;;;5094538;28;19951;-68
2021/06/18 07:41:41;;;;;;;;;;;15.20;95.50;;;;;;5091620;28;20274;-67
2021/06/18 07:44:08;;;;;;;;;;;15.20;95.10;;;;;;5092670;28;19953;-67
2021/06/18 07:46:35;;;;;;;;;;;15.10;95.20;;;;;;5092524;28;19971;-68
2021/06/18 07:49:02;;;;;;;;;;;15.10;95.00;;;;;;5092594;28;19916;-68
2021/06/18 07:51:28;;;;;;;;;;;15.20;94.90;;;;;;5092485;28;19926;-66
2021/06/18 07:53:55;;;;;;;;;;;15.20;95.00;;;;;;5091916;28;19982;-68
2021/06/18 07:56:27;;;;;;;;;;;15.20;95.20;;;;;;5092314;28;19946;-68
2021/06/18 07:58:54;;;;;;;;;;;15.20;95.70;;;;;;5092061;28;19908;-66
2021/06/18 08:01:21;;;;;;;;;;;15.20;95.10;;;;;;5092190;28;19996;-68
2021/06/18 08:03:48;;;;;;;;;;;15.10;95.00;;;;;;5092100;28;19909;-67
2021/06/18 08:06:16;;;;;;;;;;;15.10;95.00;;;;;;5091711;28;20355;-67
2021/06/18 08:08:43;;;;;;;;;;;15.10;95.10;;;;;;5092124;28;19912;-68
2021/06/18 08:11:10;;;;;;;;;;;15.10;95.00;;;;;;5092063;28;19924;-68
2021/06/18 08:13:37;;;;;;;;;;;15.20;95.00;;;;;;5091750;28;19920;-68
2021/06/18 08:16:04;;;;;;;;;;;15.10;94.70;;;;;;5091944;28;19908;-68
2021/06/18 08:18:34;;;;;;;;;;;15.10;95.30;;;;;;5091887;28;19915;-68
2021/06/18 08:21:01;;;;;;;;;;;15.10;96.90;;;;;;5091484;28;20499;-69
2021/06/18 08:23:28;;;;;;;;;;;14.90;97.90;;;;;;5091741;28;20373;-69
2021/06/18 08:25:55;;;;;;;;;;;14.50;99.90;;;;;;5091661;28;19912;-68
2021/06/18 08:28:21;;;;;;;;;;;14.20;99.90;;;;;;5091917;28;19912;-69
2021/06/18 08:30:48;;;;;;;;;;;14.00;99.90;;;;;;5091732;28;20375;-69
2021/06/18 08:33:15;;;;;;;;;;;13.80;99.90;;;;;;5091404;28;19908;-68
2021/06/18 08:35:41;;;;;;;;;;;13.70;99.90;;;;;;5089988;28;20341;-68
2021/06/18 08:38:08;;;;;;;;;;;13.60;99.90;;;;;;5091695;28;19963;-68
2021/06/18 08:40:35;;;;;;;;;;;13.50;99.90;;;;;;5091703;28;19916;-68
2021/06/18 08:43:03;;;;;;;;;;;13.50;99.90;;;;;;5091537;28;19936;-68
2021/06/18 08:45:30;;;;;;;;;;;13.30;99.90;;;;;;5091065;28;20370;-69
2021/06/18 08:47:56;;;;;;;;;;;13.20;99.90;;;;;;5091439;28;19919;-68
2021/06/18 08:50:23;;;;;;;;;;;13.00;99.90;;;;;;5091381;28;19927;-69
2021/06/18 08:52:54;;;;;;;;;;;12.90;99.90;;;;;;5091274;28;19920;-68
2021/06/18 08:55:21;;;;;;;;;;;12.80;99.90;;;;;;5091469;28;19947;-69
2021/06/18 08:57:49;;;;;;;;;;;12.80;99.90;;;;;;5091174;28;19931;-68
2021/06/18 09:00:17;;;;;;;;;;;12.70;99.90;;;;;;5090918;28;19916;-69
2021/06/18 09:02:43;;;;;;;;;;;12.70;99.90;;;;;;5091341;28;19953;-68
2021/06/18 09:05:14;;;;;;;;;;;12.70;99.90;;;;;;5091618;28;19908;-68
2021/06/18 09:07:59;;;;;;;;;;;12.70;99.90;;;;;;5093114;28;20354;-69
2021/06/18 09:10:29;;;;;;;;;;;12.70;99.90;;;;;;5092949;28;19916;-69
2021/06/18 09:13:05;;;;;;;;;;;12.70;99.90;;;;;;5092457;28;19928;-69
2021/06/18 09:15:31;;;;;;;;;;;12.70;99.90;;;;;;5092845;28;20351;-68
2021/06/18 09:18:18;;;;;;;;;;;12.70;99.90;;;;;;5093181;28;19931;-69
2021/06/18 09:20:45;;;;;;;;;;;12.70;99.90;;;;;;5092877;28;20421;-67
2021/06/18 09:23:21;;;;;;;;;;;12.60;99.90;;;;;;5092959;28;19953;-68
2021/06/18 09:25:48;;;;;;;;;;;12.60;99.90;;;;;;5092704;28;19912;-69
2021/06/18 09:28:15;;;;;;;;;;;12.60;99.90;;;;;;5092591;28;20281;-68
2021/06/18 09:30:42;;;;;;;;;;;12.60;99.90;;;;;;5091440;28;20403;-68
2021/06/18 09:33:16;;;;;;;;;;;12.60;99.90;;;;;;5093238;28;20377;-68
2021/06/18 09:36:03;;;;;;;;;;;12.40;99.90;;;;;;5092791;28;19995;-68
2021/06/18 09:38:40;;;;;;;;;;;12.30;99.90;;;;;;5093223;28;19908;-68
2021/06/18 09:41:27;;;;;;;;;;;12.30;99.90;;;;;;5092947;28;19961;-68
2021/06/18 09:43:53;;;;;;;;;;;12.20;99.90;;;;;;5092495;28;19915;-68
2021/06/18 09:46:22;;;;;;;;;;;12.20;99.90;;;;;;5092753;28;20028;-67
2021/06/18 09:48:49;;;;;;;;;;;12.20;99.90;;;;;;5093180;28;19909;-69
2021/06/18 09:51:16;;;;;;;;;;;12.20;99.90;;;;;;5092810;28;19916;-68
2021/06/18 09:53:42;;;;;;;;;;;12.20;99.90;;;;;;5092665;28;19965;-67
2021/06/18 09:56:15;;;;;;;;;;;12.20;99.90;;;;;;5092652;28;20012;-67
2021/06/18 09:58:42;;;;;;;;;;;12.10;99.90;;;;;;5092874;28;19909;-66
2021/06/18 10:01:22;;;;;;;;;;;12.10;99.90;;;;;;5092671;28;19915;-68
2021/06/18 10:04:06;;;;;;;;;;;12.00;99.90;;;;;;5092420;28;19908;-67
2021/06/18 10:06:35;;;;;;;;;;;12.00;99.90;;;;;;5092576;28;20277;-68
2021/06/18 10:09:02;;;;;;;;;;;11.90;99.90;;;;;;5092732;28;20407;-68
2021/06/18 10:11:30;;;;;;;;;;;11.90;99.90;;;;;;5092557;28;20252;-67
2021/06/18 10:13:57;;;;;;;;;;;11.90;99.90;;;;;;5092532;28;19920;-67
2021/06/18 10:16:26;;;;;;;;;;;11.90;99.90;;;;;;5092442;28;19978;-68
2021/06/18 10:18:55;;;;;;;;;;;11.90;99.90;;;;;;5092780;28;20355;-68
2021/06/18 10:21:23;;;;;;;;;;;11.90;99.90;;;;;;5092689;28;19912;-69
2021/06/18 10:23:51;;;;;;;;;;;11.70;99.90;;;;;;5095155;28;19912;-69
2021/06/18 10:26:18;;;;;;;;;;;11.70;99.90;;;;;;5096290;28;19961;-69
2021/06/18 10:28:55;;;;;;;;;;;11.60;99.90;;;;;;5096346;28;19915;-69
2021/06/18 10:31:37;;;;;;;;;;;11.50;99.90;;;;;;5095929;28;19920;-69
2021/06/18 10:34:04;;;;;;;;;;;11.50;99.90;;;;;;5096097;28;19946;-70
2021/06/18 10:36:31;;;;;;;;;;;11.60;99.90;;;;;;5095878;28;20251;-69
2021/06/18 10:39:09;;;;;;;;;;;11.60;99.90;;;;;;5096138;28;20023;-70
2021/06/18 10:41:57;;;;;;;;;;;11.50;99.90;;;;;;5094540;28;20281;-71
2021/06/18 10:44:36;;;;;;;;;;;11.50;99.90;;;;;;5082680;28;19921;-70
2021/06/18 10:47:03;;;;;;;;;;;11.50;99.90;;;;;;5095967;28;20259;-70
2021/06/18 10:49:40;;;;;;;;;;;11.40;99.90;;;;;;5095827;28;19915;-70
2021/06/18 10:52:17;;;;;;;;;;;11.40;99.90;;;;;;5095808;28;20003;-70
2021/06/18 10:54:46;;;;;;;;;;;11.50;99.90;;;;;;5095927;28;19916;-71
2021/06/18 10:57:16;;;;;;;;;;;11.50;99.90;;;;;;5095692;28;19960;-70
2021/06/18 10:59:47;;;;;;;;;;;11.50;99.90;;;;;;5095678;28;19908;-71
2021/06/18 11:02:20;;;;;;;;;;;11.50;99.90;;;;;;5095697;28;19916;-70
2021/06/18 11:04:49;;;;;;;;;;;11.40;99.90;;;;;;5095537;28;20281;-70
2021/06/18 11:07:26;;;;;;;;;;;11.40;99.90;;;;;;5095565;28;19951;-71
2021/06/18 11:09:57;;;;;;;;;;;11.40;99.90;;;;;;5095472;28;19908;-70
2021/06/18 11:12:24;;;;;;;;;;;11.40;99.90;;;;;;5095482;28;20388;-70
2021/06/18 11:14:51;;;;;;;;;;;11.50;99.90;;;;;;5095373;28;19916;-70
2021/06/18 11:17:35;;;;;;;;;;;11.50;99.90;;;;;;5095394;28;20331;-70
2021/06/18 11:20:03;;;;;;;;;;;11.50;99.90;;;;;;5095315;28;19912;-70
2021/06/18 11:22:55;;;;;;;;;;;11.50;99.90;;;;;;5093979;28;19908;-70
2021/06/18 11:25:40;;;;;;;;;;;11.50;99.90;;;;;;5095134;28;19912;-70
2021/06/18 11:28:25;;;;;;;;;;;11.50;99.90;;;;;;5095296;28;19908;-70
2021/06/18 11:30:53;;;;;;;;;;;11.50;99.90;;;;;;5095167;28;19916;-70
2021/06/18 11:33:38;;;;;;;;;;;11.50;99.90;;;;;;5094940;28;19908;-70
2021/06/18 11:36:05;;;;;;;;;;;11.50;99.90;;;;;;5094564;28;19931;-71
2021/06/18 11:38:32;;;;;;;;;;;11.50;99.90;;;;;;5094957;28;19912;-69
2021/06/18 11:41:00;;;;;;;;;;;11.50;99.90;;;;;;5085782;28;19908;-70
2021/06/18 11:43:30;;;;;;;;;;;11.50;99.90;;;;;;5074417;28;19930;-70
2021/06/18 11:45:58;;;;;;;;;;;11.50;99.90;;;;;;5074083;28;19908;-69
2021/06/18 11:48:25;;;;;;;;;;;11.50;99.90;;;;;;5080313;28;19940;-71
2021/06/18 11:50:52;;;;;;;;;;;11.50;99.90;;;;;;5073291;28;19927;-70
2021/06/18 11:53:20;;;;;;;;;;;11.60;99.90;;;;;;5071580;28;19954;-69
2021/06/18 11:56:02;;;;;;;;;;;11.50;99.90;;;;;;5071405;28;19944;-71
2021/06/18 11:58:29;;;;;;;;;;;11.60;99.90;;;;;;5071598;28;19912;-69
2021/06/18 12:00:56;;;;;;;;;;;11.60;99.90;;;;;;5070906;28;20297;-69
2021/06/18 12:03:31;;;;;;;;;;;11.70;99.90;;;;;;5071569;28;19912;-69
2021/06/18 12:05:57;;;;;;;;;;;11.70;99.90;;;;;;5071370;28;19913;-70
2021/06/18 12:08:24;;;;;;;;;;;11.70;99.90;;;;;;5071262;28;19952;-69
2021/06/18 12:10:51;;;;;;;;;;;11.60;99.90;;;;;;5071088;28;19917;-69
2021/06/18 12:13:17;;;;;;;;;;;11.80;99.90;;;;;;5070865;28;19920;-70
2021/06/18 12:15:44;;;;;;;;;;;11.80;99.90;;;;;;5070900;28;19913;-70
2021/06/18 12:18:11;;;;;;;;;;;11.90;99.90;;;;;;5071056;28;19912;-70
2021/06/18 12:20:39;;;;;;;;;;;11.80;99.90;;;;;;5071043;28;19912;-70
2021/06/18 12:23:07;;;;;;;;;;;11.80;99.90;;;;;;5071080;28;19915;-70
2021/06/18 12:25:34;;;;;;;;;;;11.80;99.90;;;;;;5070640;28;20356;-71
2021/06/18 12:28:02;;;;;;;;;;;11.90;99.90;;;;;;5070701;28;20366;-69
2021/06/18 12:30:30;;;;;;;;;;;11.90;99.90;;;;;;5086362;28;19920;-70
2021/06/18 12:32:57;;;;;;;;;;;11.90;99.90;;;;;;5070890;28;19936;-70
2021/06/18 12:35:32;;;;;;;;;;;12.00;99.90;;;;;;5071178;28;19919;-71
2021/06/18 12:38:00;;;;;;;;;;;12.00;99.90;;;;;;5070956;28;19916;-70
2021/06/18 12:40:28;;;;;;;;;;;12.10;99.90;;;;;;5070342;28;20354;-68
2021/06/18 12:42:56;;;;;;;;;;;12.10;99.90;;;;;;5070856;28;19908;-70
2021/06/18 12:45:24;;;;;;;;;;;12.10;99.90;;;;;;5070761;28;19912;-70
2021/06/18 12:47:51;;;;;;;;;;;12.10;99.90;;;;;;5070502;28;19919;-69
2021/06/18 12:50:26;;;;;;;;;;;12.20;99.90;;;;;;5070521;28;19920;-70
2021/06/18 12:52:53;;;;;;;;;;;12.20;99.90;;;;;;5070205;28;20377;-69
2021/06/18 12:55:26;;;;;;;;;;;12.20;99.90;;;;;;5070519;28;19919;-71
2021/06/18 12:58:03;;;;;;;;;;;12.30;99.90;;;;;;5070368;28;20632;-70
2021/06/18 13:00:30;;;;;;;;;;;12.30;99.90;;;;;;5070511;28;19908;-69
2021/06/18 13:02:57;;;;;;;;;;;12.30;99.90;;;;;;5070678;28;20371;-71
2021/06/18 13:05:26;;;;;;;;;;;12.30;99.90;;;;;;5070101;28;19987;-71
2021/06/18 13:07:53;;;;;;;;;;;12.30;99.90;;;;;;5070231;28;20346;-71
2021/06/18 13:10:20;;;;;;;;;;;12.40;99.90;;;;;;5070156;28;19952;-71
2021/06/18 13:12:56;;;;;;;;;;;12.40;99.90;;;;;;5070114;28;19931;-70
2021/06/18 13:15:30;;;;;;;;;;;12.40;99.90;;;;;;5068856;28;19916;-69
2021/06/18 13:17:57;;;;;;;;;;;12.40;99.90;;;;;;5070342;28;19912;-70
2021/06/18 13:20:39;;;;;;;;;;;12.40;99.90;;;;;;5070058;28;19913;-70
2021/06/18 13:23:25;;;;;;;;;;;12.40;99.90;;;;;;5070170;28;19958;-69
2021/06/18 13:26:12;;;;;;;;;;;12.40;99.90;;;;;;5062814;28;19919;-69
2021/06/18 13:28:43;;;;;;;;;;;12.50;99.90;;;;;;5069874;28;19952;-70
2021/06/18 13:31:11;;;;;;;;;;;12.50;99.90;;;;;;5068843;28;19923;-69
2021/06/18 13:33:39;;;;;;;;;;;12.50;99.90;;;;;;5069682;28;19913;-69
2021/06/18 13:36:06;;;;;;;;;;;12.50;99.90;;;;;;5070138;28;20021;-69
2021/06/18 13:38:33;;;;;;;;;;;12.50;99.90;;;;;;5069095;28;19920;-70
2021/06/18 13:41:00;;;;;;;;;;;12.50;99.90;;;;;;5070109;28;19912;-70
2021/06/18 13:43:26;;;;;;;;;;;12.60;99.90;;;;;;5069925;28;19912;-70
2021/06/18 13:45:53;;;;;;;;;;;12.60;99.90;;;;;;5069782;28;19961;-70
2021/06/18 13:48:20;;;;;;;;;;;12.60;99.90;;;;;;5066400;28;19912;-69
2021/06/18 13:50:48;;;;;;;;;;;12.60;99.90;;;;;;5070156;28;20369;-71
2021/06/18 13:53:14;;;;;;;;;;;12.60;99.90;;;;;;5069840;28;19909;-71
2021/06/18 13:55:42;;;;;;;;;;;12.60;99.90;;;;;;5069562;28;20042;-69
2021/06/18 13:58:08;;;;;;;;;;;12.60;99.90;;;;;;5071846;28;19908;-69
2021/06/18 14:00:35;;;;;;;;;;;12.60;99.90;;;;;;5073614;28;19909;-69
2021/06/18 14:03:02;;;;;;;;;;;12.60;99.90;;;;;;5073696;28;19909;-69
2021/06/18 14:05:29;;;;;;;;;;;12.70;99.90;;;;;;5073921;28;20006;-69
2021/06/18 14:07:55;;;;;;;;;;;12.70;99.90;;;;;;5073546;28;20276;-69
2021/06/18 14:10:22;;;;;;;;;;;12.80;99.90;;;;;;5073570;28;19924;-70
2021/06/18 14:12:49;;;;;;;;;;;12.80;99.90;;;;;;5073620;28;20015;-70
2021/06/18 14:15:24;;;;;;;;;;;12.80;99.90;;;;;;5073249;28;19943;-69
2021/06/18 14:17:51;;;;;;;;;;;12.80;99.90;;;;;;5073256;28;19916;-70
2021/06/18 14:20:19;;;;;;;;;;;12.80;99.90;;;;;;5072997;28;19913;-71
2021/06/18 14:22:46;;;;;;;;;;;12.80;99.90;;;;;;5073325;28;19920;-70
2021/06/18 14:25:13;;;;;;;;;;;12.80;99.90;;;;;;5073297;28;19912;-70